M/V Grande Caribe — WCX4495 — position and weather

sailwx.info

Track history (hours):
 
Tides and Currents Weather Stations Pressure Air Temp Water Temp Dewpoint Dewpoint Depression Visibility Wind Speed Wind Dir Waves Ship Positions

M/V Grande Caribe

Owner: AMERICAN CANADIAN CARIBBEAN LINE INC, WARREN, RI. More information available from US FCC via Universal Licensing System and Coast Guard Vessel Documentation Center.

Last reported at 2014-Oct-23 18:33 UTC. Time now 2014-Oct-25 19:52 UTC.
Position N 44°06' W 076°23'.

Length 55 m; draft 2.1 m.

Type: Ship. MMSI: 369023000.

Date/timePositionNaut miles runAvg speedWind from/ knotsBaromVisibWave heightAir tempDewpointWater temp
2014-Oct-23 18:33N 44°06' W 076°23'10 9.2
2014-Oct-23 17:29N 44°13' W 076°12'93 2.1
2014-Oct-21 20:24N 45°08' W 074°26'8 9.5
2014-Oct-21 19:33N 45°13' W 074°17'9 9.0
2014-Oct-21 18:33N 45°13' W 074°05'8 8.0
2014-Oct-21 17:33N 45°18' W 073°56'1 0.8
2014-Oct-21 16:30N 45°19' W 073°55'1 1.0
2014-Oct-21 15:33N 45°20' W 073°54'9 9.1
2014-Oct-21 14:33N 45°24' W 073°43'7 6.6
2014-Oct-21 13:33N 45°24' W 073°34'3 3.2
2014-Oct-21 12:33N 45°26' W 073°30'4 3.5
2014-Oct-21 11:33N 45°30' W 073°31'2 2.5
2014-Oct-21 10:33N 45°32' W 073°32'1 1.3
2014-Oct-21 09:33N 45°33' W 073°31'4 4.1
2014-Oct-21 08:33N 45°37' W 073°30'8 8.2
2014-Oct-21 07:33N 45°45' W 073°24'9 8.5
2014-Oct-21 06:33N 45°51' W 073°16'35 8.2
2014-Oct-21 02:20N 46°16' W 072°41'7 8.4
2014-Oct-21 01:33N 46°19' W 072°33'9 8.7
2014-Oct-21 00:33N 46°24' W 072°23'  
2014-Oct-18 06:26N 46°28' W 072°15'1112.3
2014-Oct-18 05:33N 46°22' W 072°29'1311.4
2014-Oct-18 04:24N 46°15' W 072°44'56 8.2
2014-Oct-17 21:31N 45°30' W 073°33'0 0.0
2014-Oct-17 20:31N 45°30' W 073°33'0 0.0
2014-Oct-17 19:31N 45°30' W 073°33'0 0.0
2014-Oct-17 18:31N 45°30' W 073°33'0 0.0
2014-Oct-17 17:31N 45°30' W 073°33'0 0.0
2014-Oct-17 16:28N 45°30' W 073°33'0 0.0
2014-Oct-17 15:31N 45°30' W 073°33'0 0.0
2014-Oct-17 14:31N 45°30' W 073°33'0 0.0
2014-Oct-17 13:31N 45°30' W 073°33'0 0.0
2014-Oct-17 12:31N 45°30' W 073°33'0 0.0
2014-Oct-17 11:28N 45°30' W 073°33'0 0.0
2014-Oct-17 10:28N 45°30' W 073°33'0 0.0
2014-Oct-17 09:25N 45°30' W 073°33'0 0.0
2014-Oct-17 08:31N 45°30' W 073°33'0 0.0
2014-Oct-17 07:31N 45°30' W 073°33'0 0.0
2014-Oct-17 06:31N 45°30' W 073°33'0 0.0
2014-Oct-17 05:31N 45°30' W 073°33'0 0.0
2014-Oct-17 04:31N 45°30' W 073°33'0 0.0
2014-Oct-17 03:31N 45°30' W 073°33'0 0.0
2014-Oct-17 02:07N 45°30' W 073°33'0 0.0
2014-Oct-17 01:28N 45°30' W 073°33'0 0.0
2014-Oct-16 12:30N 45°30' W 073°33'0 0.0
2014-Oct-16 05:31N 45°30' W 073°33'0 0.0
2014-Oct-16 04:33N 45°30' W 073°33'0 0.0
2014-Oct-16 03:33N 45°30' W 073°33'0 0.0
2014-Oct-16 02:34N 45°30' W 073°33'0 0.0
2014-Oct-16 01:33N 45°30' W 073°33'0 0.0
2014-Oct-16 00:34N 45°30' W 073°33'0 0.0
2014-Oct-15 23:33N 45°30' W 073°33'0 0.0
2014-Oct-15 22:33N 45°30' W 073°33'0 0.0
2014-Oct-15 21:33N 45°30' W 073°33'0 0.0
2014-Oct-15 20:33N 45°30' W 073°33'0 0.0
2014-Oct-15 19:33N 45°30' W 073°33'0 0.0
2014-Oct-15 18:33N 45°30' W 073°33'0 0.0
2014-Oct-15 17:33N 45°30' W 073°33'0 0.0
2014-Oct-15 16:33N 45°30' W 073°33'0 0.0
2014-Oct-15 15:33N 45°30' W 073°33'0 0.0
2014-Oct-15 14:33N 45°30' W 073°33'0 0.0
2014-Oct-15 13:33N 45°30' W 073°33'0 0.0
2014-Oct-15 12:33N 45°30' W 073°33'0 0.0
2014-Oct-15 11:33N 45°30' W 073°33'0 0.0
2014-Oct-15 10:33N 45°30' W 073°33'0 0.0
2014-Oct-15 09:33N 45°30' W 073°33'0 0.0
2014-Oct-15 08:33N 45°30' W 073°33'0 0.0
2014-Oct-15 07:33N 45°30' W 073°33'0 0.0
2014-Oct-15 06:33N 45°30' W 073°33'0 0.0
2014-Oct-15 05:33N 45°30' W 073°33'0 0.0
2014-Oct-15 04:33N 45°30' W 073°33'0 0.0
2014-Oct-15 03:33N 45°30' W 073°33'7 7.3
2014-Oct-15 02:33N 45°37' W 073°30'8 8.0
2014-Oct-15 01:33N 45°44' W 073°25'8 8.2
2014-Oct-15 00:33N 45°50' W 073°17'8 8.0
2014-Oct-14 23:33N 45°58' W 073°12'25 8.1
2014-Oct-14 20:29N 46°14' W 072°46'8 8.8
2014-Oct-14 19:33N 46°18' W 072°35'8 8.3
2014-Oct-14 18:33N 46°23' W 072°26'8 8.1
2014-Oct-14 17:33N 46°27' W 072°15'  
Track history (hours):
 
Tides and Currents Weather Stations Pressure Air Temp Water Temp Dewpoint Dewpoint Depression Visibility Wind Speed Wind Dir Waves Ship Positions

M/V Grande Caribe

Owner: AMERICAN CANADIAN CARIBBEAN LINE INC, WARREN, RI. More information available from US FCC via Universal Licensing System and Coast Guard Vessel Documentation Center.

Last reported at 2014-Oct-23 18:33 UTC. Time now 2014-Oct-25 19:52 UTC.
Position N 44°06' W 076°23'.

Length 55 m; draft 2.1 m.

Type: Ship. MMSI: 369023000.

Date/timePositionNaut miles runAvg speedWind from/ knotsBaromVisibWave heightAir tempDewpointWater temp
2014-Oct-23 18:33N 44°06' W 076°23'10 9.2
2014-Oct-23 17:29N 44°13' W 076°12'93 2.1
2014-Oct-21 20:24N 45°08' W 074°26'8 9.5
2014-Oct-21 19:33N 45°13' W 074°17'9 9.0
2014-Oct-21 18:33N 45°13' W 074°05'8 8.0
2014-Oct-21 17:33N 45°18' W 073°56'1 0.8
2014-Oct-21 16:30N 45°19' W 073°55'1 1.0
2014-Oct-21 15:33N 45°20' W 073°54'9 9.1
2014-Oct-21 14:33N 45°24' W 073°43'7 6.6
2014-Oct-21 13:33N 45°24' W 073°34'3 3.2
2014-Oct-21 12:33N 45°26' W 073°30'4 3.5
2014-Oct-21 11:33N 45°30' W 073°31'2 2.5
2014-Oct-21 10:33N 45°32' W 073°32'1 1.3
2014-Oct-21 09:33N 45°33' W 073°31'4 4.1
2014-Oct-21 08:33N 45°37' W 073°30'8 8.2
2014-Oct-21 07:33N 45°45' W 073°24'9 8.5
2014-Oct-21 06:33N 45°51' W 073°16'35 8.2
2014-Oct-21 02:20N 46°16' W 072°41'7 8.4
2014-Oct-21 01:33N 46°19' W 072°33'9 8.7
2014-Oct-21 00:33N 46°24' W 072°23'  
2014-Oct-18 06:26N 46°28' W 072°15'1112.3
2014-Oct-18 05:33N 46°22' W 072°29'1311.4
2014-Oct-18 04:24N 46°15' W 072°44'56 8.2
2014-Oct-17 21:31N 45°30' W 073°33'0 0.0
2014-Oct-17 20:31N 45°30' W 073°33'0 0.0
2014-Oct-17 19:31N 45°30' W 073°33'0 0.0
2014-Oct-17 18:31N 45°30' W 073°33'0 0.0
2014-Oct-17 17:31N 45°30' W 073°33'0 0.0
2014-Oct-17 16:28N 45°30' W 073°33'0 0.0
2014-Oct-17 15:31N 45°30' W 073°33'0 0.0
2014-Oct-17 14:31N 45°30' W 073°33'0 0.0
2014-Oct-17 13:31N 45°30' W 073°33'0 0.0
2014-Oct-17 12:31N 45°30' W 073°33'0 0.0
2014-Oct-17 11:28N 45°30' W 073°33'0 0.0
2014-Oct-17 10:28N 45°30' W 073°33'0 0.0
2014-Oct-17 09:25N 45°30' W 073°33'0 0.0
2014-Oct-17 08:31N 45°30' W 073°33'0 0.0
2014-Oct-17 07:31N 45°30' W 073°33'0 0.0
2014-Oct-17 06:31N 45°30' W 073°33'0 0.0
2014-Oct-17 05:31N 45°30' W 073°33'0 0.0
2014-Oct-17 04:31N 45°30' W 073°33'0 0.0
2014-Oct-17 03:31N 45°30' W 073°33'0 0.0
2014-Oct-17 02:07N 45°30' W 073°33'0 0.0
2014-Oct-17 01:28N 45°30' W 073°33'0 0.0
2014-Oct-16 12:30N 45°30' W 073°33'0 0.0
2014-Oct-16 05:31N 45°30' W 073°33'0 0.0
2014-Oct-16 04:33N 45°30' W 073°33'0 0.0
2014-Oct-16 03:33N 45°30' W 073°33'0 0.0
2014-Oct-16 02:34N 45°30' W 073°33'0 0.0
2014-Oct-16 01:33N 45°30' W 073°33'0 0.0
2014-Oct-16 00:34N 45°30' W 073°33'0 0.0
2014-Oct-15 23:33N 45°30' W 073°33'0 0.0
2014-Oct-15 22:33N 45°30' W 073°33'0 0.0
2014-Oct-15 21:33N 45°30' W 073°33'0 0.0
2014-Oct-15 20:33N 45°30' W 073°33'0 0.0
2014-Oct-15 19:33N 45°30' W 073°33'0 0.0
2014-Oct-15 18:33N 45°30' W 073°33'0 0.0
2014-Oct-15 17:33N 45°30' W 073°33'0 0.0
2014-Oct-15 16:33N 45°30' W 073°33'0 0.0
2014-Oct-15 15:33N 45°30' W 073°33'0 0.0
2014-Oct-15 14:33N 45°30' W 073°33'0 0.0
2014-Oct-15 13:33N 45°30' W 073°33'0 0.0
2014-Oct-15 12:33N 45°30' W 073°33'0 0.0
2014-Oct-15 11:33N 45°30' W 073°33'0 0.0
2014-Oct-15 10:33N 45°30' W 073°33'0 0.0
2014-Oct-15 09:33N 45°30' W 073°33'0 0.0
2014-Oct-15 08:33N 45°30' W 073°33'0 0.0
2014-Oct-15 07:33N 45°30' W 073°33'0 0.0
2014-Oct-15 06:33N 45°30' W 073°33'0 0.0
2014-Oct-15 05:33N 45°30' W 073°33'0 0.0
2014-Oct-15 04:33N 45°30' W 073°33'0 0.0
2014-Oct-15 03:33N 45°30' W 073°33'7 7.3
2014-Oct-15 02:33N 45°37' W 073°30'8 8.0
2014-Oct-15 01:33N 45°44' W 073°25'8 8.2
2014-Oct-15 00:33N 45°50' W 073°17'8 8.0
2014-Oct-14 23:33N 45°58' W 073°12'25 8.1
2014-Oct-14 20:29N 46°14' W 072°46'8 8.8
2014-Oct-14 19:33N 46°18' W 072°35'8 8.3
2014-Oct-14 18:33N 46°23' W 072°26'8 8.1
2014-Oct-14 17:33N 46°27' W 072°15'  

Dump ship's entire track history